CRK690 ZSHC-ZSHC
Flight info
| Callsign | CRK690 |
|---|---|
| Flight time | 0h 15m |
| Altitude | 3000 |
| Route | DCT |
| Aircraft | A359/H-SDE2E3GHIJ3J4J5LM1ORWXY/LB1D1 |
Departure
| Time | 2026-04-29 04:14 |
|---|---|
| Airport | Hangzhou Xiaoshan International Airport (ZSHC) |
Arrival
| Time | 2026-04-29 04:29 |
|---|---|
| Airport | Hangzhou Xiaoshan International Airport (ZSHC) |
| Time | Latitude | Longitude | Altitude | Speed | Heading |
|---|---|---|---|---|---|
| 2026-04-29 04:14 | 30.26392 | 120.49864 | 3226 ft | 186 kts | 56° |
| 2026-04-29 04:14 | 30.27127 | 120.51098 | 3227 ft | 187 kts | 57° |
| 2026-04-29 04:15 | 30.27510 | 120.52512 | 3222 ft | 190 kts | 89° |
| 2026-04-29 04:15 | 30.27037 | 120.53964 | 3227 ft | 202 kts | 121° |
| 2026-04-29 04:15 | 30.25874 | 120.54931 | 3227 ft | 217 kts | 155° |
| 2026-04-29 04:15 | 30.24336 | 120.54926 | 3226 ft | 232 kts | 195° |
| 2026-04-29 04:16 | 30.23000 | 120.53850 | 3234 ft | 238 kts | 221° |
| 2026-04-29 04:16 | 30.21791 | 120.52547 | 3227 ft | 237 kts | 221° |
| 2026-04-29 04:16 | 30.20591 | 120.51243 | 3225 ft | 237 kts | 221° |
| 2026-04-29 04:16 | 30.19390 | 120.49938 | 3227 ft | 237 kts | 221° |
| 2026-04-29 04:17 | 30.18185 | 120.48633 | 3227 ft | 237 kts | 221° |
| 2026-04-29 04:17 | 30.16978 | 120.47329 | 3223 ft | 238 kts | 221° |
| 2026-04-29 04:17 | 30.15914 | 120.45866 | 3221 ft | 240 kts | 239° |
| 2026-04-29 04:17 | 30.15158 | 120.44156 | 3224 ft | 239 kts | 244° |
| 2026-04-29 04:18 | 30.14408 | 120.42445 | 3225 ft | 239 kts | 243° |
| 2026-04-29 04:18 | 30.13660 | 120.40754 | 3225 ft | 234 kts | 243° |
| 2026-04-29 04:18 | 30.12915 | 120.39082 | 3227 ft | 236 kts | 242° |
| 2026-04-29 04:18 | 30.12165 | 120.37397 | 3234 ft | 236 kts | 243° |
| 2026-04-29 04:19 | 30.11438 | 120.35761 | 3220 ft | 223 kts | 243° |
| 2026-04-29 04:19 | 30.10734 | 120.34179 | 3214 ft | 220 kts | 243° |
| 2026-04-29 04:19 | 30.10034 | 120.32606 | 3240 ft | 221 kts | 242° |
| 2026-04-29 04:19 | 30.09331 | 120.31023 | 3222 ft | 222 kts | 240° |
| 2026-04-29 04:20 | 30.08618 | 120.29445 | 3237 ft | 219 kts | 242° |
| 2026-04-29 04:20 | 30.07924 | 120.27894 | 3228 ft | 215 kts | 242° |
| 2026-04-29 04:20 | 30.07252 | 120.26384 | 3227 ft | 214 kts | 243° |
| 2026-04-29 04:20 | 30.06571 | 120.24858 | 3224 ft | 214 kts | 243° |
| 2026-04-29 04:21 | 30.05891 | 120.23334 | 3227 ft | 213 kts | 242° |
| 2026-04-29 04:21 | 30.05233 | 120.21793 | 3219 ft | 216 kts | 250° |
| 2026-04-29 04:21 | 30.05136 | 120.20098 | 3222 ft | 210 kts | 290° |
| 2026-04-29 04:21 | 30.05821 | 120.18703 | 3229 ft | 196 kts | 323° |
| 2026-04-29 04:22 | 30.06547 | 120.18114 | 3229 ft | 184 kts | 342° |
| 2026-04-29 04:22 | 30.07686 | 120.17459 | 3226 ft | 183 kts | 343° |
| 2026-04-29 04:22 | 30.09231 | 120.16758 | 3230 ft | 175 kts | 1° |
| 2026-04-29 04:22 | 30.10017 | 120.16792 | 3237 ft | 167 kts | 20° |
| 2026-04-29 04:23 | 30.11044 | 120.17323 | 3226 ft | 160 kts | 40° |
| 2026-04-29 04:23 | 30.11683 | 120.18338 | 3229 ft | 158 kts | 63° |
| 2026-04-29 04:23 | 30.12217 | 120.19440 | 3226 ft | 157 kts | 62° |
| 2026-04-29 04:23 | 30.12739 | 120.20544 | 3227 ft | 156 kts | 62° |
| 2026-04-29 04:24 | 30.13247 | 120.21658 | 3228 ft | 153 kts | 62° |
| 2026-04-29 04:24 | 30.13729 | 120.22727 | 3228 ft | 146 kts | 63° |
| 2026-04-29 04:24 | 30.14192 | 120.23756 | 3251 ft | 154 kts | 63° |
| 2026-04-29 04:24 | 30.14687 | 120.24864 | 3214 ft | 157 kts | 62° |
| 2026-04-29 04:25 | 30.15176 | 120.25962 | 3080 ft | 151 kts | 61° |
| 2026-04-29 04:25 | 30.15656 | 120.27036 | 2899 ft | 150 kts | 63° |
| 2026-04-29 04:25 | 30.16133 | 120.28108 | 2709 ft | 151 kts | 63° |
| 2026-04-29 04:25 | 30.16610 | 120.29177 | 2497 ft | 143 kts | 62° |
| 2026-04-29 04:26 | 30.17044 | 120.30152 | 2312 ft | 132 kts | 62° |
| 2026-04-29 04:26 | 30.17459 | 120.31085 | 2136 ft | 129 kts | 62° |
| 2026-04-29 04:26 | 30.17867 | 120.32000 | 1956 ft | 127 kts | 62° |
| 2026-04-29 04:26 | 30.18272 | 120.32910 | 1782 ft | 127 kts | 61° |
| 2026-04-29 04:27 | 30.18675 | 120.33816 | 1608 ft | 127 kts | 63° |
| 2026-04-29 04:27 | 30.19083 | 120.34734 | 1434 ft | 129 kts | 61° |
| 2026-04-29 04:27 | 30.19491 | 120.35652 | 1261 ft | 128 kts | 61° |
| 2026-04-29 04:27 | 30.19897 | 120.36565 | 1083 ft | 128 kts | 61° |
| 2026-04-29 04:28 | 30.20309 | 120.37490 | 906 ft | 131 kts | 59° |
| 2026-04-29 04:28 | 30.20729 | 120.38436 | 713 ft | 133 kts | 60° |
| 2026-04-29 04:28 | 30.21151 | 120.39385 | 544 ft | 133 kts | 60° |
| 2026-04-29 04:28 | 30.21577 | 120.40354 | 347 ft | 137 kts | 62° |
| 2026-04-29 04:29 | 30.21998 | 120.41319 | 155 ft | 137 kts | 60° |
| 2026-04-29 04:29 | 30.22439 | 120.42281 | 53 ft | 127 kts | 59° |
| 2026-04-29 04:29 | 30.22782 | 120.43031 | 32 ft | 69 kts | 63° |
| 2026-04-29 04:29 | 30.22862 | 120.43226 | 34 ft | 0 kts | 64° |